Time;durP1;ratioP1;P1;durP2;ratioP2;P2;SDS_P1;SDS_P2;PMS_P1;PMS_P2;Temp;Humidity;BMP_temperature;BMP_pressure;BME280_temperature;BME280_humidity;BME280_pressure;Samples;Min_cycle;Max_cycle;Signal;HPM_P1;HPM_P2
2022/11/15 00:01:44;;;;;;;31.35;20.35;;;8.10;99.90;;;;;;5077691;28;20231;-76
2022/11/15 00:04:52;;;;;;;33.95;20.85;;;8.00;99.90;;;;;;5077529;28;20905;-76
2022/11/15 00:08:00;;;;;;;33.63;21.90;;;8.00;99.90;;;;;;5079032;28;20823;-77
2022/11/15 00:11:07;;;;;;;30.48;21.58;;;8.00;99.90;;;;;;5076072;28;20227;-76
2022/11/15 00:14:15;;;;;;;30.73;20.50;;;8.00;99.90;;;;;;5081356;28;20234;-77
2022/11/15 00:17:23;;;;;;;32.03;21.85;;;8.20;99.90;;;;;;5082308;28;20223;-77
2022/11/15 00:20:29;;;;;;;30.70;21.45;;;8.20;99.90;;;;;;5081588;28;20314;-76
2022/11/15 00:23:37;;;;;;;31.90;21.17;;;8.20;99.90;;;;;;5077416;28;20709;-76
2022/11/15 00:26:44;;;;;;;34.30;22.52;;;8.40;99.90;;;;;;5087567;28;20318;-76
2022/11/15 00:29:53;;;;;;;33.15;22.15;;;8.20;99.90;;;;;;5080322;28;20223;-77
2022/11/15 00:33:03;;;;;;;33.28;22.33;;;8.20;99.90;;;;;;5079079;28;20348;-78
2022/11/15 00:36:11;;;;;;;31.52;22.08;;;8.20;99.90;;;;;;5080281;28;20265;-77
2022/11/15 00:39:19;;;;;;;37.28;23.70;;;8.10;99.90;;;;;;5075120;28;20232;-77
2022/11/15 00:42:26;;;;;;;39.35;24.73;;;8.00;99.90;;;;;;5079448;28;20272;-78
2022/11/15 00:45:35;;;;;;;37.13;24.10;;;8.10;99.90;;;;;;5080015;28;20606;-80
2022/11/15 00:48:41;;;;;;;36.67;23.90;;;8.00;99.90;;;;;;5079878;28;20207;-78
2022/11/15 00:51:49;;;;;;;41.85;26.38;;;8.10;99.90;;;;;;5078744;28;20899;-76
2022/11/15 00:54:56;;;;;;;38.58;24.52;;;8.10;99.90;;;;;;5082788;28;20334;-78
2022/11/15 00:58:04;;;;;;;40.58;25.77;;;8.10;99.90;;;;;;5078284;28;20265;-78
2022/11/15 01:01:15;;;;;;;45.65;27.25;;;7.80;99.90;;;;;;5078864;28;20219;-77
2022/11/15 01:04:22;;;;;;;41.75;26.90;;;7.90;99.90;;;;;;5078642;28;20235;-79
2022/11/15 01:07:29;;;;;;;39.92;26.83;;;7.80;99.90;;;;;;5082654;28;20219;-77
2022/11/15 01:10:38;;;;;;;42.05;26.80;;;7.90;99.90;;;;;;5075952;28;20227;-77
2022/11/15 01:13:45;;;;;;;43.88;27.98;;;7.90;99.90;;;;;;5084138;28;20229;-79
2022/11/15 01:16:54;;;;;;;40.85;26.73;;;8.00;99.90;;;;;;5076747;28;21010;-77
2022/11/15 01:20:01;;;;;;;44.50;27.48;;;8.00;99.90;;;;;;5078871;28;20234;-78
2022/11/15 01:23:08;;;;;;;47.33;28.67;;;8.10;99.90;;;;;;5082936;28;20250;-79
2022/11/15 01:26:16;;;;;;;46.90;28.88;;;8.10;99.90;;;;;;5078394;28;20251;-79
2022/11/15 01:29:23;;;;;;;47.80;29.10;;;8.00;99.90;;;;;;5080631;28;20288;-79
2022/11/15 01:32:32;;;;;;;41.25;27.23;;;8.00;99.90;;;;;;5080561;28;20225;-77
2022/11/15 01:35:40;;;;;;;47.13;28.20;;;8.00;99.90;;;;;;5076948;28;20535;-79
2022/11/15 01:38:48;;;;;;;43.50;27.08;;;8.00;99.90;;;;;;5079305;28;20223;-78
2022/11/15 01:41:55;;;;;;;48.47;28.05;;;8.00;99.90;;;;;;5064925;28;20212;-76
2022/11/15 01:45:03;;;;;;;45.70;26.92;;;8.10;99.90;;;;;;5074759;28;20219;-76
2022/11/15 01:48:11;;;;;;;51.15;28.25;;;8.10;99.90;;;;;;5077277;28;20219;-76
2022/11/15 01:51:21;;;;;;;51.35;28.17;;;8.00;99.90;;;;;;5082727;28;20227;-75
2022/11/15 01:54:28;;;;;;;46.90;27.27;;;8.10;99.90;;;;;;5081538;28;20262;-74
2022/11/15 01:57:36;;;;;;;46.63;26.90;;;8.00;99.90;;;;;;5081039;28;20215;-77
2022/11/15 02:00:43;;;;;;;48.83;27.23;;;8.00;99.90;;;;;;5077850;28;20306;-77
2022/11/15 02:03:57;;;;;;;46.67;27.58;;;8.10;99.90;;;;;;5073140;28;20223;-76
2022/11/15 02:07:07;;;;;;;45.28;26.90;;;8.00;99.90;;;;;;5077306;28;20222;-78
2022/11/15 02:10:19;;;;;;;48.95;27.83;;;8.10;99.90;;;;;;5074627;28;20222;-78
2022/11/15 02:13:26;;;;;;;48.08;27.52;;;8.00;99.90;;;;;;5076320;28;20334;-75
2022/11/15 02:16:44;;;;;;;44.00;26.63;;;8.10;99.90;;;;;;5081064;28;20215;-73
2022/11/15 02:20:33;;;;;;;44.53;26.15;;;8.00;99.90;;;;;;5078892;28;20234;-75
2022/11/15 02:24:22;;;;;;;46.35;25.60;;;8.10;99.90;;;;;;5079589;28;20207;-76
2022/11/15 02:27:47;;;;;;;42.97;26.17;;;8.10;99.90;;;;;;5077849;28;20223;-77
2022/11/15 02:31:00;;;;;;;44.70;26.70;;;8.10;99.90;;;;;;5075962;28;20484;-77
2022/11/15 02:34:14;;;;;;;45.97;27.13;;;8.00;99.90;;;;;;5079876;28;20222;-77
2022/11/15 02:37:28;;;;;;;43.15;26.98;;;7.90;99.90;;;;;;5077466;28;20231;-76
2022/11/15 02:40:45;;;;;;;43.08;27.33;;;7.80;99.90;;;;;;5076244;28;20215;-77
2022/11/15 02:43:56;;;;;;;48.72;28.00;;;7.80;99.90;;;;;;5077303;28;20224;-77
2022/11/15 02:47:15;;;;;;;45.45;28.17;;;7.90;99.90;;;;;;5079327;28;20227;-74
2022/11/15 02:50:26;;;;;;;50.13;28.95;;;7.90;99.90;;;;;;5081042;28;20894;-77
2022/11/15 02:53:38;;;;;;;51.58;29.15;;;7.90;99.90;;;;;;5087038;28;20231;-75
2022/11/15 02:56:47;;;;;;;47.92;28.02;;;7.90;99.90;;;;;;5078124;28;20322;-76
2022/11/15 03:00:05;;;;;;;46.63;29.17;;;7.90;99.90;;;;;;5081357;28;20931;-77
2022/11/15 03:03:36;;;;;;;51.40;30.75;;;7.90;99.90;;;;;;5079658;28;20261;-77
2022/11/15 03:06:51;;;;;;;56.22;31.17;;;7.90;99.90;;;;;;5081670;28;20227;-77
2022/11/15 03:10:06;;;;;;;53.72;32.15;;;7.90;99.90;;;;;;5079947;28;20236;-76
2022/11/15 03:13:22;;;;;;;59.28;32.00;;;7.80;99.90;;;;;;5080874;28;20647;-76
2022/11/15 03:16:35;;;;;;;52.33;32.17;;;7.80;99.90;;;;;;5068495;28;20766;-78
2022/11/15 03:19:46;;;;;;;57.17;30.80;;;7.80;99.90;;;;;;5082082;28;20223;-77
2022/11/15 03:22:56;;;;;;;53.60;31.38;;;8.00;99.90;;;;;;5080992;28;20701;-76
2022/11/15 03:26:08;;;;;;;56.08;32.50;;;8.10;99.90;;;;;;5081446;28;20228;-77
2022/11/15 03:29:18;;;;;;;54.17;32.90;;;7.90;99.90;;;;;;5078070;28;20238;-77
2022/11/15 03:32:30;;;;;;;54.83;32.15;;;7.60;99.90;;;;;;5082388;28;20239;-77
2022/11/15 03:35:43;;;;;;;56.67;33.92;;;7.70;99.90;;;;;;5081099;28;20231;-77
2022/11/15 03:38:52;;;;;;;57.42;32.80;;;7.70;99.90;;;;;;5080371;28;20615;-77
2022/11/15 03:42:10;;;;;;;54.35;31.90;;;7.90;99.90;;;;;;5080209;28;20856;-77
2022/11/15 03:45:20;;;;;;;56.83;32.70;;;7.70;99.90;;;;;;5082325;28;20223;-77
2022/11/15 03:48:31;;;;;;;55.38;32.10;;;7.70;99.90;;;;;;5077034;28;20627;-76
2022/11/15 03:51:41;;;;;;;55.92;33.33;;;7.70;99.90;;;;;;5081520;28;20214;-76
2022/11/15 03:54:53;;;;;;;62.70;34.03;;;7.90;99.90;;;;;;5067108;28;20236;-77
2022/11/15 03:58:01;;;;;;;61.30;34.90;;;7.80;99.90;;;;;;5079170;28;20223;-77
2022/11/15 04:01:09;;;;;;;61.47;33.63;;;7.80;99.90;;;;;;5078286;28;20295;-76
2022/11/15 04:04:16;;;;;;;55.88;32.30;;;7.70;99.90;;;;;;5080188;28;20228;-76
2022/11/15 04:07:24;;;;;;;48.63;28.60;;;7.70;99.90;;;;;;5093796;28;20222;-76
2022/11/15 04:10:31;;;;;;;54.75;28.88;;;7.70;99.90;;;;;;5082073;28;20223;-78
2022/11/15 04:13:38;;;;;;;56.72;29.67;;;7.80;99.90;;;;;;5077244;28;20224;-78
2022/11/15 04:16:46;;;;;;;55.13;29.88;;;7.60;99.90;;;;;;5081661;28;20214;-76
2022/11/15 04:26:45;;;;;;;53.35;28.52;;;7.60;99.90;;;;;;5077536;28;20223;-76
2022/11/15 04:29:52;;;;;;;52.95;29.73;;;7.70;99.90;;;;;;5080173;28;20268;-77
2022/11/15 04:32:59;;;;;;;57.17;30.67;;;7.70;99.90;;;;;;5081717;28;20276;-77
2022/11/15 04:39:32;;;;;;;57.45;29.83;;;7.70;99.90;;;;;;5073646;28;20603;-76
2022/11/15 04:42:42;;;;;;;53.45;30.25;;;7.60;99.90;;;;;;5083978;28;20722;-76
2022/11/15 04:45:49;;;;;;;54.55;30.10;;;7.60;99.90;;;;;;5080487;28;20318;-77
2022/11/15 04:48:56;;;;;;;54.45;30.48;;;7.70;99.90;;;;;;5083086;28;20223;-76
2022/11/15 04:52:05;;;;;;;55.53;29.38;;;7.70;99.90;;;;;;5080744;28;20691;-76
2022/11/15 04:55:14;;;;;;;56.55;29.00;;;7.70;99.90;;;;;;5080098;28;20223;-76
2022/11/15 04:58:21;;;;;;;57.25;30.20;;;7.70;99.90;;;;;;5079231;28;20216;-76
2022/11/15 05:01:29;;;;;;;58.22;29.60;;;7.70;99.90;;;;;;5079312;28;20318;-76
2022/11/15 05:04:35;;;;;;;56.10;29.30;;;7.60;99.90;;;;;;5079829;28;20226;-75
2022/11/15 05:07:43;;;;;;;53.75;29.58;;;7.60;99.90;;;;;;5079518;28;20878;-77
2022/11/15 05:10:51;;;;;;;59.67;31.58;;;7.70;99.90;;;;;;5072689;28;20231;-77
2022/11/15 05:13:59;;;;;;;66.38;32.28;;;7.60;99.90;;;;;;5081490;28;20308;-77
2022/11/15 05:17:05;;;;;;;60.42;30.67;;;7.70;99.90;;;;;;5079767;28;20219;-76
2022/11/15 05:20:13;;;;;;;58.72;30.27;;;7.60;99.90;;;;;;5079541;28;20227;-76
2022/11/15 05:23:20;;;;;;;57.08;29.83;;;7.60;99.90;;;;;;5081165;28;20667;-76
2022/11/15 05:26:29;;;;;;;52.25;27.73;;;7.70;99.90;;;;;;5084760;28;20222;-76
2022/11/15 05:29:36;;;;;;;63.55;31.35;;;7.70;99.90;;;;;;5076323;28;20212;-78
2022/11/15 05:32:44;;;;;;;64.68;30.48;;;7.60;99.90;;;;;;5077434;28;20278;-77
2022/11/15 05:35:59;;;;;;;61.60;30.45;;;7.50;99.90;;;;;;5080094;28;20220;-75
2022/11/15 05:39:08;;;;;;;60.08;30.65;;;7.60;99.90;;;;;;5076872;28;20223;-79
2022/11/15 05:42:18;;;;;;;58.85;30.60;;;7.60;99.90;;;;;;5079896;28;20223;-79
2022/11/15 05:45:25;;;;;;;61.38;30.10;;;7.40;99.90;;;;;;5078663;28;20827;-80
2022/11/15 05:48:35;;;;;;;59.95;30.08;;;7.50;99.90;;;;;;5084031;28;20227;-77
2022/11/15 05:51:45;;;;;;;64.35;30.85;;;7.50;99.90;;;;;;5080826;28;20223;-75
2022/11/15 05:54:53;;;;;;;66.68;31.10;;;7.60;99.90;;;;;;5079082;28;20718;-75
2022/11/15 05:58:03;;;;;;;61.67;29.73;;;7.50;99.90;;;;;;5078601;28;20671;-77
2022/11/15 06:01:10;;;;;;;57.90;29.10;;;7.50;99.90;;;;;;5068282;28;20230;-76
2022/11/15 06:04:17;;;;;;;57.73;29.33;;;7.50;99.90;;;;;;5078973;28;20222;-76
2022/11/15 06:07:24;;;;;;;48.38;26.58;;;7.40;99.90;;;;;;5078990;28;20709;-76
2022/11/15 06:10:31;;;;;;;54.03;27.97;;;7.40;99.90;;;;;;5074809;28;20306;-77
2022/11/15 06:13:40;;;;;;;57.53;29.03;;;7.20;99.90;;;;;;5077552;28;20226;-77
2022/11/15 06:16:48;;;;;;;58.80;28.75;;;7.20;99.90;;;;;;5075894;28;20220;-76
2022/11/15 06:19:55;;;;;;;60.33;30.23;;;7.40;99.90;;;;;;5076840;28;20215;-76
2022/11/15 06:23:04;;;;;;;59.85;28.83;;;7.40;99.90;;;;;;5074568;28;20231;-76
2022/11/15 06:26:11;;;;;;;59.17;29.33;;;7.40;99.90;;;;;;5075451;28;20683;-77
2022/11/15 06:29:20;;;;;;;60.63;28.75;;;7.50;99.90;;;;;;5076957;28;20230;-76
2022/11/15 06:32:27;;;;;;;60.70;29.83;;;7.60;99.90;;;;;;5075378;28;20682;-75
2022/11/15 06:35:35;;;;;;;62.97;30.55;;;7.50;99.90;;;;;;5079958;28;20258;-76
2022/11/15 06:38:42;;;;;;;66.63;30.45;;;7.40;99.90;;;;;;5074804;28;20288;-76
2022/11/15 06:41:49;;;;;;;64.13;31.55;;;7.50;99.90;;;;;;5075789;28;20219;-77
2022/11/15 06:44:58;;;;;;;64.50;30.65;;;7.50;99.90;;;;;;5079349;28;20624;-74
2022/11/15 06:48:06;;;;;;;55.30;26.83;;;7.50;99.90;;;;;;5079353;28;20930;-75
2022/11/15 06:51:13;;;;;;;53.03;26.60;;;7.60;99.90;;;;;;5076251;28;20219;-79
2022/11/15 06:54:20;;;;;;;55.08;27.48;;;7.60;99.90;;;;;;5077152;28;20544;-79
2022/11/15 06:57:28;;;;;;;55.33;26.13;;;7.50;99.90;;;;;;5076890;28;20242;-79
2022/11/15 07:00:36;;;;;;;52.50;25.30;;;7.20;99.90;;;;;;5076698;28;20312;-81
2022/11/15 07:03:45;;;;;;;49.25;24.33;;;7.00;99.90;;;;;;5076026;28;20238;-80
2022/11/15 07:06:52;;;;;;;53.15;26.42;;;7.10;99.90;;;;;;5078650;28;20302;-77
2022/11/15 07:10:00;;;;;;;58.25;27.55;;;7.20;99.90;;;;;;5078836;28;20321;-80
2022/11/15 07:13:07;;;;;;;50.53;24.93;;;7.00;99.90;;;;;;5071631;28;20219;-79
2022/11/15 07:16:15;;;;;;;50.35;25.77;;;7.10;99.90;;;;;;5077853;28;20759;-82
2022/11/15 07:19:25;;;;;;;48.22;24.80;;;7.20;99.90;;;;;;5086104;28;20302;-81
2022/11/15 07:22:32;;;;;;;50.88;25.35;;;7.30;99.90;;;;;;5083358;28;20239;-80
2022/11/15 07:25:39;;;;;;;47.70;25.35;;;7.40;99.90;;;;;;5083961;28;20230;-81
2022/11/15 07:28:47;;;;;;;46.38;24.13;;;7.50;99.90;;;;;;5081614;28;20226;-81
2022/11/15 07:31:56;;;;;;;43.55;23.70;;;7.60;99.90;;;;;;5085753;28;20226;-80
2022/11/15 07:35:03;;;;;;;39.27;22.50;;;7.40;99.90;;;;;;5082757;28;20330;-80
2022/11/15 07:38:10;;;;;;;40.40;22.27;;;7.40;99.90;;;;;;5084466;28;20705;-78
2022/11/15 07:41:17;;;;;;;39.07;21.63;;;7.40;99.90;;;;;;5076741;28;20216;-78
2022/11/15 07:44:24;;;;;;;39.80;21.67;;;7.40;99.90;;;;;;5081907;28;20516;-79
2022/11/15 07:47:33;;;;;;;36.55;20.27;;;7.30;99.90;;;;;;5082783;28;20265;-79
2022/11/15 07:50:42;;;;;;;38.78;21.75;;;7.20;99.90;;;;;;5077234;28;20307;-78
2022/11/15 07:53:50;;;;;;;51.92;22.05;;;7.30;99.90;;;;;;5084073;28;20319;-77
2022/11/15 07:56:57;;;;;;;35.67;21.30;;;7.60;99.90;;;;;;5082514;28;20256;-79
2022/11/15 08:00:14;;;;;;;44.67;23.57;;;7.60;99.90;;;;;;5082215;28;20245;-78
2022/11/15 08:03:22;;;;;;;39.67;22.52;;;7.50;99.90;;;;;;5079007;28;20226;-80
2022/11/15 08:06:29;;;;;;;36.60;20.73;;;7.60;99.90;;;;;;5082038;28;20219;-77
2022/11/15 08:09:36;;;;;;;34.67;20.63;;;7.50;99.90;;;;;;5078466;28;20309;-77
2022/11/15 08:12:43;;;;;;;37.93;21.17;;;7.40;99.90;;;;;;5082133;28;20625;-77
2022/11/15 08:15:51;;;;;;;39.27;21.80;;;7.30;99.90;;;;;;5082657;28;20254;-77
2022/11/15 08:19:05;;;;;;;39.35;21.70;;;7.40;99.90;;;;;;5079036;28;20302;-75
2022/11/15 08:22:12;;;;;;;34.63;20.33;;;7.40;99.90;;;;;;5080215;28;20223;-77
2022/11/15 08:25:19;;;;;;;37.10;20.83;;;7.60;99.90;;;;;;5079037;28;20731;-77
2022/11/15 08:28:27;;;;;;;42.42;22.55;;;7.70;99.90;;;;;;5081228;28;20222;-76
2022/11/15 08:31:37;;;;;;;42.80;22.70;;;7.80;99.90;;;;;;5082147;28;20734;-75
2022/11/15 08:34:46;;;;;;;43.90;22.98;;;7.80;99.90;;;;;;5081228;28;20219;-78
2022/11/15 08:37:54;;;;;;;42.30;23.97;;;7.80;99.90;;;;;;5080519;28;20208;-78
2022/11/15 08:41:03;;;;;;;40.53;22.52;;;7.80;99.90;;;;;;5076738;28;20231;-78
2022/11/15 08:44:10;;;;;;;41.85;22.02;;;7.70;99.90;;;;;;5083514;28;20230;-79
2022/11/15 08:47:17;;;;;;;43.97;22.27;;;7.50;99.90;;;;;;5083194;28;20235;-77
2022/11/15 08:50:26;;;;;;;42.93;22.23;;;7.50;99.90;;;;;;5082239;28;20227;-79
2022/11/15 08:53:34;;;;;;;38.67;21.85;;;7.50;99.90;;;;;;5079933;28;20604;-78
2022/11/15 08:56:41;;;;;;;42.47;22.20;;;7.60;99.90;;;;;;5082255;28;20219;-78
2022/11/15 08:59:48;;;;;;;39.10;21.03;;;7.60;99.90;;;;;;5076430;28;20305;-77
2022/11/15 09:02:56;;;;;;;38.60;21.40;;;7.70;99.90;;;;;;5085526;28;20218;-79
2022/11/15 09:06:08;;;;;;;38.75;22.30;;;7.80;99.90;;;;;;5076275;28;20220;-79
2022/11/15 09:09:16;;;;;;;48.35;23.63;;;7.80;99.90;;;;;;5083637;28;20242;-76
2022/11/15 09:12:23;;;;;;;42.47;23.77;;;7.70;99.90;;;;;;5084769;28;20242;-75
2022/11/15 09:15:30;;;;;;;38.28;21.63;;;7.60;99.90;;;;;;5082220;28;20210;-73
2022/11/15 09:18:37;;;;;;;39.25;22.60;;;7.60;99.90;;;;;;5075246;28;21036;-74
2022/11/15 09:21:46;;;;;;;37.67;22.88;;;7.60;99.90;;;;;;5083137;28;20218;-75
2022/11/15 09:24:52;;;;;;;41.47;23.10;;;7.70;99.90;;;;;;5080563;28;20220;-73
2022/11/15 09:28:00;;;;;;;40.38;23.85;;;7.90;99.90;;;;;;5078469;28;20249;-75
2022/11/15 09:31:07;;;;;;;36.05;22.48;;;7.90;99.90;;;;;;5080243;28;20329;-71
2022/11/15 09:34:15;;;;;;;36.35;22.38;;;7.90;99.90;;;;;;5081934;28;20287;-73
2022/11/15 09:37:23;;;;;;;39.25;22.65;;;7.90;99.90;;;;;;5080585;28;20250;-76
2022/11/15 09:40:32;;;;;;;43.22;24.70;;;7.80;99.90;;;;;;5077792;28;20253;-74
2022/11/15 09:43:48;;;;;;;41.20;24.42;;;7.90;99.90;;;;;;5077330;28;20237;-75
2022/11/15 09:47:04;;;;;;;43.28;24.23;;;7.80;99.90;;;;;;5076181;28;20314;-74
2022/11/15 09:50:33;;;;;;;45.00;25.02;;;7.90;99.90;;;;;;5079356;28;20230;-73
2022/11/15 09:53:30;;;;;;;41.80;24.35;;;8.00;99.90;;;;;;5062060;28;20241;-73
2022/11/15 09:56:42;;;;;;;41.38;25.35;;;8.10;99.90;;;;;;5060618;28;20352;-74
2022/11/15 09:59:47;;;;;;;44.40;25.63;;;8.00;99.90;;;;;;5078280;28;20224;-80
2022/11/15 10:02:53;;;;;;;45.03;25.17;;;8.00;99.90;;;;;;5078293;28;20220;-80
2022/11/15 10:05:43;;;;;;;42.25;26.08;;;8.00;99.90;;;;;;5059336;28;20243;-79
2022/11/15 10:08:48;;;;;;;44.80;26.63;;;8.00;99.90;;;;;;5072146;28;20245;-81
2022/11/15 10:11:38;;;;;;;44.70;26.15;;;8.20;99.90;;;;;;5080394;28;20712;-80
2022/11/15 10:14:31;;;;;;;46.10;26.90;;;8.00;99.90;;;;;;5080223;28;20219;-79
2022/11/15 10:17:37;;;;;;;46.65;26.58;;;8.00;99.90;;;;;;5073143;28;20812;-82
2022/11/15 10:20:27;;;;;;;51.00;26.98;;;8.20;99.90;;;;;;5080778;28;20309;-81
2022/11/15 10:23:17;;;;;;;51.47;27.38;;;8.20;99.90;;;;;;5071301;28;20223;-83
2022/11/15 10:26:15;;;;;;;45.05;26.98;;;8.20;99.90;;;;;;5079247;28;20766;-82
2022/11/15 10:29:04;;;;;;;44.47;26.85;;;8.30;99.90;;;;;;5079936;28;20235;-84
2022/11/15 10:31:53;;;;;;;44.30;26.27;;;8.30;99.90;;;;;;5062807;28;20215;-83
2022/11/15 10:34:42;;;;;;;50.85;27.42;;;8.30;99.90;;;;;;5080701;28;20237;-81
2022/11/15 10:37:32;;;;;;;46.00;25.95;;;8.40;99.90;;;;;;5059653;28;20228;-80
2022/11/15 10:40:23;;;;;;;46.42;27.92;;;8.30;99.90;;;;;;5059892;28;20231;-80
2022/11/15 10:43:18;;;;;;;49.63;27.42;;;8.30;99.90;;;;;;5063532;28;20268;-81
2022/11/15 10:46:20;;;;;;;42.70;26.23;;;8.20;99.90;;;;;;5063449;28;20227;-82
2022/11/15 10:49:31;;;;;;;46.10;25.73;;;8.20;99.90;;;;;;5079131;28;20220;-81
2022/11/15 10:52:22;;;;;;;47.17;26.83;;;8.30;99.90;;;;;;5065951;28;20535;-81
2022/11/15 10:55:25;;;;;;;41.65;25.58;;;8.30;99.90;;;;;;5068184;28;20220;-82
2022/11/15 10:58:31;;;;;;;41.30;24.83;;;8.30;99.90;;;;;;5060247;28;20638;-74
2022/11/15 11:01:24;;;;;;;45.20;25.27;;;8.40;99.90;;;;;;5077068;28;20224;-76
2022/11/15 11:04:12;;;;;;;43.33;25.85;;;8.40;99.90;;;;;;5080110;28;20335;-75
2022/11/15 11:07:01;;;;;;;41.00;25.65;;;8.50;99.90;;;;;;5065814;28;20223;-77
2022/11/15 11:09:59;;;;;;;42.47;26.05;;;8.60;99.90;;;;;;5066192;28;20235;-76
2022/11/15 11:12:47;;;;;;;41.42;26.17;;;8.60;99.90;;;;;;5081233;28;20273;-76
2022/11/15 11:15:37;;;;;;;42.15;25.02;;;8.70;99.90;;;;;;5067597;28;20226;-76
2022/11/15 11:18:32;;;;;;;44.22;25.77;;;8.50;99.90;;;;;;5066542;28;20724;-76
2022/11/15 11:21:29;;;;;;;41.65;26.25;;;8.50;99.90;;;;;;5068625;28;20228;-75
2022/11/15 11:24:35;;;;;;;45.42;27.05;;;8.30;99.90;;;;;;5074781;28;20223;-78
2022/11/15 11:27:37;;;;;;;45.42;27.92;;;8.30;99.90;;;;;;5078879;28;20231;-78
2022/11/15 11:30:41;;;;;;;48.83;27.48;;;8.20;99.90;;;;;;5068640;28;20222;-79
2022/11/15 11:33:33;;;;;;;46.53;28.10;;;8.40;99.90;;;;;;5077942;28;20246;-81
2022/11/15 11:36:28;;;;;;;45.40;28.33;;;8.40;99.90;;;;;;5068209;28;20632;-83
2022/11/15 11:39:29;;;;;;;48.58;27.42;;;8.50;99.90;;;;;;5068032;28;20636;-83
2022/11/15 11:42:27;;;;;;;45.58;27.73;;;8.70;99.90;;;;;;5076454;28;20291;-78
2022/11/15 11:45:22;;;;;;;48.47;28.65;;;8.80;99.90;;;;;;5067073;28;20223;-82
2022/11/15 11:48:14;;;;;;;47.45;28.50;;;8.80;99.90;;;;;;5081733;28;20234;-84
2022/11/15 11:51:16;;;;;;;48.47;27.75;;;8.80;99.90;;;;;;5063646;28;20962;-75
2022/11/15 11:54:13;;;;;;;47.40;28.30;;;8.70;99.90;;;;;;5083045;28;20238;-75
2022/11/15 11:57:07;;;;;;;48.92;28.38;;;8.80;99.90;;;;;;5078427;28;20220;-73
2022/11/15 12:00:02;;;;;;;46.65;27.75;;;8.90;99.90;;;;;;5067809;28;20231;-74
2022/11/15 12:03:10;;;;;;;49.03;29.27;;;8.90;99.90;;;;;;5076344;28;20242;-74
2022/11/15 12:06:02;;;;;;;48.88;28.90;;;8.90;99.90;;;;;;5064753;28;20239;-73
2022/11/15 12:08:59;;;;;;;52.30;30.10;;;8.90;99.90;;;;;;5063912;28;20234;-74
2022/11/15 12:11:55;;;;;;;49.70;30.58;;;8.80;99.90;;;;;;5061357;28;20219;-73
2022/11/15 12:14:52;;;;;;;46.60;29.77;;;8.80;99.90;;;;;;5077678;28;20231;-74
2022/11/15 12:17:42;;;;;;;52.67;30.27;;;8.90;99.90;;;;;;5081049;28;20242;-73
2022/11/15 12:20:34;;;;;;;50.67;30.05;;;8.90;99.90;;;;;;5080643;28;20227;-75
2022/11/15 12:23:28;;;;;;;54.30;30.45;;;8.90;99.90;;;;;;5085308;28;20220;-74
2022/11/15 12:26:21;;;;;;;47.53;28.17;;;8.90;99.90;;;;;;5078059;28;20215;-75
2022/11/15 12:29:17;;;;;;;51.58;30.23;;;8.90;99.90;;;;;;5076907;28;20235;-75
2022/11/15 12:32:16;;;;;;;49.20;28.40;;;9.10;99.90;;;;;;5059962;28;20390;-76
2022/11/15 12:35:06;;;;;;;59.83;30.83;;;9.10;99.90;;;;;;5076625;28;20226;-75
2022/11/15 12:37:56;;;;;;;49.40;30.67;;;9.10;99.90;;;;;;5061380;28;20260;-75
2022/11/15 12:41:16;;;;;;;51.85;30.67;;;9.20;99.90;;;;;;5081332;28;20923;-76
2022/11/15 12:44:13;;;;;;;51.15;30.23;;;9.20;99.90;;;;;;5080911;28;20231;-76
2022/11/15 12:47:05;;;;;;;51.55;30.33;;;9.00;99.90;;;;;;5064332;28;20231;-75
2022/11/15 12:49:54;;;;;;;51.15;30.45;;;9.00;99.90;;;;;;5078922;28;20224;-73
2022/11/15 12:53:12;;;;;;;47.80;29.20;;;9.00;99.90;;;;;;5079300;28;20248;-75
2022/11/15 12:56:22;;;;;;;54.85;30.35;;;9.00;99.90;;;;;;5061746;28;20219;-74
2022/11/15 12:59:31;;;;;;;52.20;30.63;;;9.10;99.90;;;;;;5076025;28;20692;-74
2022/11/15 13:02:22;;;;;;;54.72;31.65;;;9.10;99.90;;;;;;5076964;28;20884;-73
2022/11/15 13:06:01;;;;;;;52.90;31.25;;;9.10;99.90;;;;;;5056127;28;20555;-74
2022/11/15 13:08:51;;;;;;;57.38;32.50;;;9.20;99.90;;;;;;5061559;28;20572;-75
2022/11/15 13:11:48;;;;;;;61.15;32.40;;;9.10;99.90;;;;;;5055966;28;20227;-74
2022/11/15 13:14:51;;;;;;;58.28;33.20;;;9.10;99.90;;;;;;5059655;28;20226;-74
2022/11/15 13:17:41;;;;;;;57.72;33.00;;;9.00;99.90;;;;;;5056528;28;20219;-75
2022/11/15 13:20:31;;;;;;;58.33;33.30;;;9.10;99.90;;;;;;5078571;28;20756;-74
2022/11/15 13:23:22;;;;;;;64.07;33.25;;;9.20;99.90;;;;;;5075467;28;20223;-75
2022/11/15 13:26:16;;;;;;;61.05;33.55;;;9.10;99.90;;;;;;5060118;28;20227;-75
2022/11/15 13:29:06;;;;;;;56.97;33.13;;;9.20;99.90;;;;;;5076713;28;20302;-74
2022/11/15 13:31:56;;;;;;;54.78;32.80;;;9.10;99.90;;;;;;5058398;28;20216;-75
2022/11/15 13:34:46;;;;;;;59.08;33.63;;;9.10;99.90;;;;;;5061817;28;20650;-74
2022/11/15 13:37:40;;;;;;;60.90;33.03;;;9.20;99.90;;;;;;5079750;28;21053;-75
2022/11/15 13:40:34;;;;;;;57.53;32.42;;;9.00;99.90;;;;;;5064522;28;20234;-78
2022/11/15 13:43:41;;;;;;;63.67;34.47;;;9.00;99.90;;;;;;5064954;28;20310;-78
2022/11/15 13:46:32;;;;;;;67.18;35.33;;;9.10;99.90;;;;;;5081624;28;20241;-76
2022/11/15 13:49:30;;;;;;;58.83;33.47;;;9.00;99.90;;;;;;5062446;28;20302;-76
2022/11/15 13:52:19;;;;;;;58.78;33.47;;;9.10;99.90;;;;;;5060571;28;20219;-76
2022/11/15 13:55:14;;;;;;;55.00;32.58;;;9.10;99.90;;;;;;5056522;28;20228;-76
2022/11/15 13:58:09;;;;;;;62.42;34.58;;;9.10;99.90;;;;;;5059145;28;20232;-77
2022/11/15 14:01:02;;;;;;;62.45;33.92;;;9.20;99.90;;;;;;5074288;28;20226;-75
2022/11/15 14:03:55;;;;;;;53.60;33.17;;;9.20;99.90;;;;;;5076283;28;20222;-76
2022/11/15 14:06:51;;;;;;;63.22;33.60;;;9.20;99.90;;;;;;5059750;28;20212;-78
2022/11/15 14:09:40;;;;;;;62.03;35.45;;;9.00;99.90;;;;;;5061144;28;20251;-78
2022/11/15 14:12:31;;;;;;;59.72;33.55;;;9.00;99.90;;;;;;5063508;28;20227;-77
2022/11/15 14:15:29;;;;;;;58.45;33.78;;;9.20;99.90;;;;;;5062219;28;20276;-76
2022/11/15 14:18:43;;;;;;;60.78;35.67;;;9.10;99.90;;;;;;5061772;28;20715;-80
2022/11/15 14:21:32;;;;;;;59.33;33.83;;;9.00;99.90;;;;;;5089507;28;20242;-77
2022/11/15 14:24:23;;;;;;;55.50;33.22;;;9.10;99.90;;;;;;5078851;28;20222;-78
2022/11/15 14:27:20;;;;;;;56.75;34.15;;;9.00;99.90;;;;;;5080364;28;20223;-77
2022/11/15 14:30:14;;;;;;;55.67;33.00;;;8.90;99.90;;;;;;5072097;28;20220;-79
2022/11/15 14:33:18;;;;;;;62.95;33.58;;;8.90;99.90;;;;;;5084756;28;20229;-76
2022/11/15 14:36:12;;;;;;;61.28;33.60;;;9.00;99.90;;;;;;5085337;28;20230;-79
2022/11/15 14:39:01;;;;;;;62.20;34.63;;;9.10;99.90;;;;;;5085853;28;20235;-77
2022/11/15 14:41:51;;;;;;;56.55;33.85;;;9.20;99.90;;;;;;5066475;28;20220;-77
2022/11/15 14:44:40;;;;;;;60.58;34.03;;;8.90;99.90;;;;;;5085406;28;20211;-77
2022/11/15 14:47:33;;;;;;;62.72;34.22;;;9.00;99.90;;;;;;5080023;28;20224;-79
2022/11/15 14:50:23;;;;;;;65.03;35.03;;;8.80;99.90;;;;;;5073224;28;20247;-80
2022/11/15 14:53:14;;;;;;;66.70;35.13;;;8.50;99.90;;;;;;5082939;28;20223;-78
2022/11/15 14:56:02;;;;;;;68.47;34.25;;;8.30;99.90;;;;;;5065095;28;20234;-79
2022/11/15 14:58:54;;;;;;;65.07;35.53;;;8.30;99.90;;;;;;5074156;28;20781;-80
2022/11/15 15:01:43;;;;;;;66.35;35.90;;;8.40;99.90;;;;;;5083086;28;20841;-78
2022/11/15 15:04:32;;;;;;;67.80;34.45;;;8.30;99.90;;;;;;5087439;28;20246;-80
2022/11/15 15:07:21;;;;;;;68.00;35.88;;;8.50;99.90;;;;;;5065567;28;20894;-78
2022/11/15 15:10:10;;;;;;;63.22;34.08;;;8.40;99.90;;;;;;5093533;28;20369;-78
2022/11/15 15:13:21;;;;;;;58.65;33.53;;;8.40;99.90;;;;;;5069425;28;20223;-77
2022/11/15 15:16:11;;;;;;;64.25;34.72;;;8.40;99.90;;;;;;5083300;28;20230;-77
2022/11/15 15:19:25;;;;;;;64.00;34.35;;;8.50;99.90;;;;;;5070684;28;20725;-80
2022/11/15 15:22:16;;;;;;;69.93;34.80;;;8.50;99.90;;;;;;5079552;28;20253;-79
2022/11/15 15:25:19;;;;;;;65.50;33.92;;;8.40;99.90;;;;;;5079994;28;20223;-78
2022/11/15 15:28:08;;;;;;;69.28;35.13;;;8.40;99.90;;;;;;5062757;28;20226;-79
2022/11/15 15:30:57;;;;;;;64.85;35.38;;;8.50;99.90;;;;;;5064681;28;20376;-79
2022/11/15 15:33:47;;;;;;;81.28;41.92;;;8.50;99.90;;;;;;5061903;28;20232;-79
2022/11/15 15:36:35;;;;;;;84.78;44.95;;;8.60;99.90;;;;;;5082023;28;20231;-78
2022/11/15 15:39:24;;;;;;;78.97;38.70;;;8.40;99.90;;;;;;5066394;28;20219;-77
2022/11/15 15:42:12;;;;;;;74.63;38.35;;;8.40;99.90;;;;;;5081604;28;20231;-80
2022/11/15 15:45:01;;;;;;;78.90;35.72;;;8.30;99.90;;;;;;5061863;28;20220;-81
2022/11/15 15:47:51;;;;;;;71.18;35.28;;;8.30;99.90;;;;;;5082591;28;20377;-80
2022/11/15 15:50:42;;;;;;;71.88;35.42;;;8.30;99.90;;;;;;5065225;28;20222;-74
2022/11/15 15:53:31;;;;;;;70.15;36.17;;;8.50;99.90;;;;;;5080242;28;20231;-75